»·PEaware :: SKW4401 KOLM-KPDX

SKW4401 :: KOLM-KPDX

FLIGHT INFORMATION

Flight Status: Arrived
Operator:
SkyWest Airlines
More flights by this operator :: More flights under this callsign
Pilot: Jack B. (5846)
Aircraft: CANADAIR CL-600 CRJ-200
(CRJ2)
More flights by this aircraft type
Origin: KOLM Olympia
United States
Destination: KPDX Portland Intl
United States
More flights between these airports :: More routes between these airports
Route: +YELM5 KRATR KRATR2
File this flight plan on PilotEdge
Remarks:
Altitude:
(Current/Filed)
11,000ft
Speed:
(Current/Filed)
320kts
Departed: 15-Aug-19 01:03 PM
Arrived: 15-Aug-19 01:27 PM
Distance/Time
Traveled:
84nm/0:24
Distance/Time
To Go:
Arrived

Flight Plot

Page will automatically refresh every two minutes.

Flight plan parsing failed; only flown route is shown


Map Options




Map Legend


Flown Route
Filed Route
Departure Airport
Arrival Airport
Navaid (VOR, NDB)
Fix

Horizontal Profiles

Position Reports

Time Latitude Longitude Heading Altitude Ground
Speed
15-Aug-19 12:44 46.975201 -122.908791 303 199ft 0kts
15-Aug-19 12:45 46.975201 -122.908791 303 199ft 0kts
15-Aug-19 12:46 46.975201 -122.908791 303 199ft 0kts
15-Aug-19 12:47 46.975201 -122.908791 303 199ft 0kts
15-Aug-19 12:48 46.975201 -122.908791 303 199ft 0kts
15-Aug-19 12:49 46.975201 -122.908791 303 199ft 0kts
15-Aug-19 12:50 46.975201 -122.908791 303 199ft 0kts
15-Aug-19 12:51 46.975201 -122.908791 303 199ft 0kts
15-Aug-19 12:52 46.975201 -122.908791 303 199ft 0kts
15-Aug-19 12:53 46.975201 -122.908791 303 199ft 0kts
15-Aug-19 12:54 46.975201 -122.908791 303 199ft 0kts
15-Aug-19 12:55 46.975201 -122.908791 303 199ft 0kts
15-Aug-19 12:56 46.975201 -122.908791 303 199ft 0kts
15-Aug-19 12:57 46.975201 -122.908791 303 199ft 0kts
15-Aug-19 12:58 46.975201 -122.908791 303 199ft 0kts
15-Aug-19 12:59 46.975201 -122.908791 303 199ft 0kts
15-Aug-19 13:00 46.976061 -122.908751 1 199ft 13kts
15-Aug-19 13:01 46.976542 -122.905778 101 197ft 7kts
15-Aug-19 13:02 46.967371 -122.905198 192 205ft 135kts
15-Aug-19 13:03 46.934982 -122.880030 80 2272ft 190kts
15-Aug-19 13:04 46.947921 -122.787218 79 2984ft 262kts
15-Aug-19 13:05 46.928505 -122.697090 156 6462ft 238kts
15-Aug-19 13:06 46.865082 -122.671469 168 9146ft 246kts
15-Aug-19 13:07 46.795980 -122.646691 168 10982ft 289kts
15-Aug-19 13:08 46.702925 -122.614601 168 10993ft 392kts
15-Aug-19 13:09 46.596619 -122.593563 179 10981ft 391kts
15-Aug-19 13:10 46.486988 -122.591674 181 10979ft 393kts
15-Aug-19 13:11 46.380925 -122.591510 181 10978ft 389kts
15-Aug-19 13:12 46.272910 -122.591490 181 10975ft 390kts
15-Aug-19 13:13 46.174408 -122.591454 182 9958ft 318kts
15-Aug-19 13:14 46.092967 -122.591480 182 9008ft 278kts
15-Aug-19 13:15 46.012291 -122.591483 180 9000ft 295kts
15-Aug-19 13:16 45.929970 -122.591441 181 8976ft 298kts
15-Aug-19 13:17 45.849232 -122.591379 181 7029ft 281kts
15-Aug-19 13:18 45.771900 -122.591220 181 7004ft 278kts
15-Aug-19 13:19 45.708245 -122.550579 114 7011ft 276kts
15-Aug-19 13:20 45.674065 -122.448125 114 5016ft 271kts
15-Aug-19 13:21 45.639003 -122.353437 137 4731ft 261kts
15-Aug-19 13:22 45.578630 -122.372163 238 2479ft 254kts
15-Aug-19 13:23 45.553063 -122.458376 257 1604ft 225kts
15-Aug-19 13:24 45.568933 -122.529557 298 681ft 156kts
15-Aug-19 13:25 45.588351 -122.579059 298 22ft 117kts
15-Aug-19 13:26 45.592100 -122.591705 267 22ft 0kts
15-Aug-19 13:28 45.592374 -122.594740 300 23ft 21kts
15-Aug-19 13:29 45.591477 -122.599164 241 22ft 14kts
15-Aug-19 13:30 45.589148 -122.600682 119 22ft 16kts
15-Aug-19 13:31 45.586884 -122.594891 122 22ft 30kts
15-Aug-19 13:32 45.587066 -122.593566 29 22ft 0kts
15-Aug-19 13:33 45.587066 -122.593566 29 22ft 0kts
15-Aug-19 13:34 45.587066 -122.593566 29 22ft 0kts
15-Aug-19 13:35 45.587066 -122.593566 29 22ft 0kts
15-Aug-19 13:36 45.587066 -122.593566 29 22ft 0kts
15-Aug-19 13:37 45.587066 -122.593566 29 22ft 0kts
15-Aug-19 13:38 45.587066 -122.593566 29 22ft 0kts
15-Aug-19 13:39 45.587066 -122.593566 29 22ft 0kts
15-Aug-19 13:40 45.587066 -122.593566 29 22ft 0kts
15-Aug-19 13:41 45.587066 -122.593566 29 22ft 0kts

Navigation Log

Ident Type
Flight plan parsing failed, navigation log unavailable